Time;durP1;ratioP1;P1;durP2;ratioP2;P2;SDS_P1;SDS_P2;PMS_P1;PMS_P2;Temp;Humidity;BMP_temperature;BMP_pressure;BME280_temperature;BME280_humidity;BME280_pressure;Samples;Min_cycle;Max_cycle;Signal;HPM_P1;HPM_P2
2021/01/11 00:00:42;;;;;;;0.75;0.75;;;1.50;1.00;;;;;;4975794;28;20200;-68
2021/01/11 00:03:08;;;;;;;1.05;1.05;;;1.50;1.00;;;;;;4975619;28;20727;-67
2021/01/11 00:05:34;;;;;;;0.85;0.85;;;1.50;1.00;;;;;;4975875;28;20220;-67
2021/01/11 00:08:01;;;;;;;0.80;0.80;;;1.50;1.00;;;;;;4975192;28;20204;-67
2021/01/11 00:10:27;;;;;;;0.88;0.88;;;1.40;1.00;;;;;;4975842;28;20200;-68
2021/01/11 00:12:53;;;;;;;1.10;1.10;;;1.40;1.00;;;;;;4975974;28;20223;-70
2021/01/11 00:15:19;;;;;;;0.70;0.70;;;1.40;1.00;;;;;;4975921;28;20192;-68
2021/01/11 00:17:49;;;;;;;0.98;0.98;;;1.30;1.00;;;;;;4975157;28;20660;-67
2021/01/11 00:20:15;;;;;;;0.65;0.65;;;1.30;1.00;;;;;;4975489;28;20249;-67
2021/01/11 00:22:43;;;;;;;0.40;0.40;;;1.20;1.00;;;;;;4975554;28;20227;-67
2021/01/11 00:25:11;;;;;;;0.30;0.30;;;1.20;28.50;;;;;;4975541;28;20722;-68
2021/01/11 00:27:38;;;;;;;0.50;0.50;;;1.20;33.90;;;;;;4974599;28;20204;-67
2021/01/11 00:30:07;;;;;;;0.50;0.50;;;1.10;26.40;;;;;;4975218;28;20709;-67
2021/01/11 00:32:34;;;;;;;0.43;0.43;;;1.10;25.00;;;;;;4974600;28;20231;-68
2021/01/11 00:35:00;;;;;;;0.50;0.50;;;1.10;25.10;;;;;;4975123;28;20606;-67
2021/01/11 00:37:27;;;;;;;0.70;0.70;;;1.10;12.60;;;;;;4974949;28;20199;-67
2021/01/11 00:39:53;;;;;;;0.68;0.68;;;1.00;39.90;;;;;;4974624;28;20192;-68
2021/01/11 00:42:20;;;;;;;0.40;0.40;;;1.00;62.90;;;;;;4975374;28;20221;-67
2021/01/11 00:44:46;;;;;;;0.25;0.25;;;1.00;92.60;;;;;;4975550;28;20220;-67
2021/01/11 00:47:12;;;;;;;0.10;0.10;;;1.00;93.80;;;;;;4975276;28;20207;-67
2021/01/11 00:49:40;;;;;;;0.10;0.10;;;1.00;99.90;;;;;;4974672;28;20204;-67
2021/01/11 00:52:07;;;;;;;0.00;0.00;;;1.00;99.90;;;;;;4974715;28;20208;-67
2021/01/11 00:54:33;;;;;;;0.00;0.00;;;1.10;99.90;;;;;;4974496;28;20201;-67
2021/01/11 00:56:59;;;;;;;0.00;0.00;;;1.10;99.90;;;;;;4974868;28;20208;-67
2021/01/11 00:59:26;;;;;;;0.00;0.00;;;1.10;99.90;;;;;;4974748;28;20237;-67
2021/01/11 01:01:53;;;;;;;0.00;0.00;;;1.10;99.90;;;;;;4974529;28;20218;-67
2021/01/11 01:04:19;;;;;;;0.00;0.00;;;1.10;91.10;;;;;;4973553;28;20199;-67
2021/01/11 01:06:46;;;;;;;0.00;0.00;;;1.10;99.90;;;;;;4975297;28;20567;-68
2021/01/11 01:09:12;;;;;;;0.00;0.00;;;1.10;90.70;;;;;;4974959;28;20204;-68
2021/01/11 01:11:39;;;;;;;0.00;0.00;;;1.10;98.10;;;;;;4975703;28;20208;-68
2021/01/11 01:14:05;;;;;;;0.00;0.00;;;1.10;92.50;;;;;;4974798;28;20216;-67
2021/01/11 01:16:32;;;;;;;0.00;0.00;;;1.10;99.90;;;;;;4973707;28;20199;-67
2021/01/11 01:18:59;;;;;;;0.00;0.00;;;1.10;99.90;;;;;;4973994;28;20210;-67
2021/01/11 01:21:25;;;;;;;0.00;0.00;;;1.10;99.90;;;;;;4974211;28;20565;-67
2021/01/11 01:23:51;;;;;;;0.00;0.00;;;1.10;99.90;;;;;;4974460;28;20227;-68
2021/01/11 01:26:18;;;;;;;0.00;0.00;;;1.10;99.90;;;;;;4974899;28;20223;-67
2021/01/11 01:28:44;;;;;;;0.00;0.00;;;1.10;99.90;;;;;;4974431;28;20196;-68
2021/01/11 01:31:10;;;;;;;0.00;0.00;;;1.20;97.90;;;;;;4974097;28;20199;-68
2021/01/11 01:33:37;;;;;;;0.10;0.10;;;1.20;90.00;;;;;;4974908;28;20550;-68
2021/01/11 01:36:04;;;;;;;0.10;0.10;;;1.20;94.10;;;;;;4974201;28;20196;-67
2021/01/11 01:38:30;;;;;;;0.10;0.10;;;1.10;95.40;;;;;;4973605;28;20203;-68
2021/01/11 01:40:56;;;;;;;0.10;0.10;;;1.10;99.90;;;;;;4974118;28;20223;-68
2021/01/11 01:43:22;;;;;;;0.30;0.00;;;1.20;99.90;;;;;;4973697;28;20224;-67
2021/01/11 01:45:49;;;;;;;0.00;0.00;;;1.20;99.90;;;;;;4971834;28;20263;-68
2021/01/11 01:48:15;;;;;;;0.08;0.08;;;1.20;97.10;;;;;;4973707;28;20262;-67
2021/01/11 01:50:43;;;;;;;0.10;0.10;;;1.20;99.90;;;;;;4973648;28;20200;-67
2021/01/11 01:53:09;;;;;;;0.10;0.10;;;1.20;99.90;;;;;;4973493;28;20228;-68
2021/01/11 01:55:37;;;;;;;0.10;0.10;;;1.20;99.90;;;;;;4973086;28;20222;-68
2021/01/11 01:58:04;;;;;;;0.10;0.10;;;1.30;99.90;;;;;;4972954;28;20219;-67
2021/01/11 02:00:30;;;;;;;0.00;0.00;;;1.30;99.90;;;;;;4973214;28;20204;-67
2021/01/11 02:02:57;;;;;;;0.10;0.10;;;1.30;99.90;;;;;;4973407;28;20787;-67
2021/01/11 02:05:23;;;;;;;0.20;0.10;;;1.30;99.90;;;;;;4973575;28;20211;-67
2021/01/11 02:08:02;;;;;;;0.10;0.10;;;1.30;99.90;;;;;;4972536;28;20210;-67
2021/01/11 02:10:42;;;;;;;0.10;0.10;;;1.30;99.90;;;;;;4972768;28;20200;-67
2021/01/11 02:13:25;;;;;;;0.03;0.03;;;1.20;99.90;;;;;;4973393;28;20220;-67
2021/01/11 02:15:55;;;;;;;0.00;0.00;;;1.30;99.90;;;;;;4971487;28;20195;-68
2021/01/11 02:18:29;;;;;;;0.00;0.00;;;1.20;96.30;;;;;;4972757;28;20212;-67
2021/01/11 02:21:09;;;;;;;0.10;0.10;;;1.20;99.90;;;;;;4973064;28;20203;-67
2021/01/11 02:24:04;;;;;;;0.00;0.00;;;1.20;99.90;;;;;;4972896;28;20219;-68
2021/01/11 02:26:55;;;;;;;0.00;0.00;;;1.20;99.90;;;;;;4972613;28;20304;-68
2021/01/11 02:29:33;;;;;;;0.00;0.00;;;1.20;96.30;;;;;;4973337;28;20200;-67
2021/01/11 02:32:00;;;;;;;0.00;0.00;;;1.20;77.50;;;;;;4973180;28;20207;-67
2021/01/11 02:34:28;;;;;;;0.00;0.00;;;1.20;82.10;;;;;;4973237;28;20196;-67
2021/01/11 02:36:55;;;;;;;0.00;0.00;;;1.20;88.40;;;;;;4974149;28;20200;-68
2021/01/11 02:39:21;;;;;;;0.00;0.00;;;1.20;86.80;;;;;;4973477;28;20553;-67
2021/01/11 02:41:47;;;;;;;0.00;0.00;;;1.10;95.70;;;;;;4973291;28;20203;-68
2021/01/11 02:44:13;;;;;;;0.00;0.00;;;1.10;67.90;;;;;;4972589;28;20200;-67
2021/01/11 02:46:39;;;;;;;0.00;0.00;;;1.10;90.80;;;;;;4972068;28;20228;-67
2021/01/11 02:49:15;;;;;;;0.00;0.00;;;1.10;99.90;;;;;;4973517;28;20211;-68
2021/01/11 02:51:50;;;;;;;0.00;0.00;;;1.10;97.70;;;;;;4973692;28;20203;-68
2021/01/11 02:54:22;;;;;;;0.00;0.00;;;1.10;59.80;;;;;;4974738;28;20199;-68
2021/01/11 02:56:52;;;;;;;0.00;0.00;;;1.10;53.50;;;;;;4977440;28;20184;-68
2021/01/11 02:59:20;;;;;;;0.00;0.00;;;1.10;49.30;;;;;;4978000;28;20184;-68
2021/01/11 03:01:56;;;;;;;0.00;0.00;;;1.00;38.20;;;;;;4977909;28;20294;-68
2021/01/11 03:04:25;;;;;;;0.00;0.00;;;1.00;37.30;;;;;;4978315;28;20200;-68
2021/01/11 03:06:56;;;;;;;0.00;0.00;;;1.00;44.00;;;;;;4978272;28;20216;-67
2021/01/11 03:09:22;;;;;;;0.00;0.00;;;1.00;43.30;;;;;;4977769;28;20215;-68
2021/01/11 03:11:48;;;;;;;0.00;0.00;;;1.00;21.80;;;;;;4978359;28;20562;-68
2021/01/11 03:14:15;;;;;;;0.00;0.00;;;0.90;28.80;;;;;;4977904;28;20196;-68
2021/01/11 03:16:41;;;;;;;0.00;0.00;;;0.90;60.70;;;;;;4976655;28;20579;-68
2021/01/11 03:19:07;;;;;;;0.00;0.00;;;0.90;91.00;;;;;;4976062;28;20223;-68
2021/01/11 03:21:34;;;;;;;0.00;0.00;;;0.90;39.50;;;;;;4976760;28;20200;-69
2021/01/11 03:24:00;;;;;;;0.00;0.00;;;0.90;78.40;;;;;;4976436;28;20286;-67
2021/01/11 03:26:27;;;;;;;0.00;0.00;;;0.90;73.10;;;;;;4976954;28;20264;-68
2021/01/11 03:28:54;;;;;;;0.00;0.00;;;0.90;42.30;;;;;;4976065;28;20200;-68
2021/01/11 03:31:21;;;;;;;0.00;0.00;;;0.90;53.50;;;;;;4975411;28;20207;-68
2021/01/11 03:33:47;;;;;;;0.00;0.00;;;0.90;45.20;;;;;;4976127;28;20227;-67
2021/01/11 03:36:13;;;;;;;0.00;0.00;;;0.80;44.80;;;;;;4975388;28;20727;-68
2021/01/11 03:38:40;;;;;;;0.00;0.00;;;0.80;60.60;;;;;;4976118;28;20712;-68
2021/01/11 03:41:08;;;;;;;0.00;0.00;;;0.80;98.40;;;;;;4975937;28;20208;-68
2021/01/11 03:43:36;;;;;;;0.00;0.00;;;0.80;88.10;;;;;;4976059;28;20311;-68
2021/01/11 03:46:02;;;;;;;0.00;0.00;;;0.80;92.00;;;;;;4974834;28;20255;-68
2021/01/11 03:48:28;;;;;;;0.00;0.00;;;0.70;82.70;;;;;;4975680;28;20204;-67
2021/01/11 03:50:55;;;;;;;0.00;0.00;;;0.70;99.90;;;;;;4975566;28;20196;-67
2021/01/11 03:53:21;;;;;;;0.00;0.00;;;0.70;55.30;;;;;;4975277;28;20247;-67
2021/01/11 03:55:48;;;;;;;0.00;0.00;;;0.70;58.90;;;;;;4975874;28;20196;-68
2021/01/11 03:58:14;;;;;;;0.00;0.00;;;0.70;28.10;;;;;;4975529;28;20211;-68
2021/01/11 04:00:40;;;;;;;0.00;0.00;;;0.60;97.50;;;;;;4975458;28;20199;-68
2021/01/11 04:03:06;;;;;;;0.00;0.00;;;0.60;99.90;;;;;;4975435;28;20562;-68
2021/01/11 04:05:33;;;;;;;0.00;0.00;;;0.70;91.80;;;;;;4974722;28;20275;-67
2021/01/11 04:07:59;;;;;;;0.00;0.00;;;0.70;45.90;;;;;;4974742;28;20202;-68
2021/01/11 04:10:25;;;;;;;0.00;0.00;;;0.70;33.10;;;;;;4975072;28;20207;-68
2021/01/11 04:12:52;;;;;;;0.00;0.00;;;0.70;32.30;;;;;;4975467;28;20220;-68
2021/01/11 04:15:18;;;;;;;0.00;0.00;;;0.70;13.80;;;;;;4975181;28;20560;-68
2021/01/11 04:17:44;;;;;;;0.00;0.00;;;0.70;22.60;;;;;;4974466;28;20204;-68
2021/01/11 04:20:11;;;;;;;0.00;0.00;;;0.70;12.20;;;;;;4974941;28;20203;-68
2021/01/11 04:22:37;;;;;;;0.00;0.00;;;0.70;6.20;;;;;;4975346;28;20587;-68
2021/01/11 04:25:03;;;;;;;0.00;0.00;;;0.60;1.00;;;;;;4974800;28;20255;-68
2021/01/11 04:27:29;;;;;;;0.00;0.00;;;0.60;1.00;;;;;;4974433;28;20196;-68
2021/01/11 04:29:56;;;;;;;0.00;0.00;;;0.60;1.00;;;;;;4974886;28;20203;-68
2021/01/11 04:32:22;;;;;;;0.00;0.00;;;0.60;1.00;;;;;;4974243;28;20242;-68
2021/01/11 04:34:48;;;;;;;0.00;0.00;;;0.60;1.00;;;;;;4974414;28;20664;-68
2021/01/11 04:37:15;;;;;;;0.00;0.00;;;0.60;1.00;;;;;;4975046;28;20210;-68
2021/01/11 04:39:41;;;;;;;0.00;0.00;;;0.60;1.50;;;;;;4975062;28;20664;-67
2021/01/11 04:42:11;;;;;;;0.00;0.00;;;0.60;1.00;;;;;;4974873;28;20669;-68
2021/01/11 04:44:38;;;;;;;0.00;0.00;;;0.60;1.00;;;;;;4974734;28;20694;-68
2021/01/11 04:47:05;;;;;;;0.00;0.00;;;0.60;1.00;;;;;;4974499;28;20207;-68
2021/01/11 04:49:31;;;;;;;0.00;0.00;;;0.60;1.00;;;;;;4974539;28;20586;-68
2021/01/11 04:52:00;;;;;;;0.00;0.00;;;0.50;1.00;;;;;;4974441;28;20200;-68
2021/01/11 04:54:30;;;;;;;0.00;0.00;;;0.50;1.00;;;;;;4974870;28;20200;-68
2021/01/11 04:57:00;;;;;;;0.00;0.00;;;0.50;1.00;;;;;;4974236;28;20195;-67
2021/01/11 04:59:28;;;;;;;0.00;0.00;;;0.50;1.00;;;;;;4973738;28;20199;-67
2021/01/11 05:01:56;;;;;;;0.00;0.00;;;0.50;1.00;;;;;;4974049;28;20236;-68
2021/01/11 05:04:22;;;;;;;0.00;0.00;;;0.40;1.00;;;;;;4974053;28;20199;-67
2021/01/11 05:06:49;;;;;;;0.00;0.00;;;0.40;1.00;;;;;;4973371;28;20700;-68
2021/01/11 05:09:17;;;;;;;0.00;0.00;;;0.40;8.60;;;;;;4974001;28;20687;-68
2021/01/11 05:11:44;;;;;;;0.00;0.00;;;0.40;43.00;;;;;;4973951;28;20727;-68
2021/01/11 05:14:16;;;;;;;0.00;0.00;;;0.40;62.10;;;;;;4974118;28;20230;-68
2021/01/11 05:16:42;;;;;;;0.00;0.00;;;0.40;46.50;;;;;;4974018;28;20184;-67
2021/01/11 05:19:22;;;;;;;0.00;0.00;;;0.40;26.10;;;;;;4970834;28;20218;-67
2021/01/11 05:21:49;;;;;;;0.00;0.00;;;0.40;10.70;;;;;;4973710;28;20196;-67
2021/01/11 05:24:34;;;;;;;0.00;0.00;;;0.30;32.00;;;;;;4973796;28;20210;-67
2021/01/11 05:27:03;;;;;;;0.00;0.00;;;0.30;41.50;;;;;;4986811;28;20307;-68
2021/01/11 05:29:29;;;;;;;0.00;0.00;;;0.40;73.00;;;;;;4991825;28;20199;-69
2021/01/11 05:31:57;;;;;;;0.00;0.00;;;0.30;44.90;;;;;;4992926;28;20717;-68
2021/01/11 05:34:24;;;;;;;0.00;0.00;;;0.30;87.80;;;;;;4993414;28;20207;-68
2021/01/11 05:36:51;;;;;;;0.00;0.00;;;0.20;97.10;;;;;;4993808;28;20210;-68
2021/01/11 05:39:25;;;;;;;0.00;0.00;;;0.30;99.90;;;;;;4993580;28;20718;-68
2021/01/11 05:41:51;;;;;;;0.00;0.00;;;0.30;99.90;;;;;;4994442;28;20210;-68
2021/01/11 05:44:17;;;;;;;0.00;0.00;;;0.30;99.90;;;;;;4994296;28;20819;-68
2021/01/11 05:46:45;;;;;;;0.00;0.00;;;0.20;99.90;;;;;;4993187;28;20223;-68
2021/01/11 05:49:12;;;;;;;0.00;0.00;;;0.30;99.90;;;;;;4992422;28;20207;-68
2021/01/11 05:51:40;;;;;;;0.00;0.00;;;0.30;99.90;;;;;;4991772;28;20199;-68
2021/01/11 05:54:23;;;;;;;0.00;0.00;;;0.30;99.90;;;;;;4992572;28;20223;-67
2021/01/11 05:56:53;;;;;;;0.00;0.00;;;0.30;99.90;;;;;;4992819;28;20201;-67
2021/01/11 05:59:20;;;;;;;0.00;0.00;;;0.30;99.90;;;;;;4992052;28;20199;-67
2021/01/11 06:01:46;;;;;;;0.00;0.00;;;0.30;99.90;;;;;;4992435;28;20563;-68
2021/01/11 06:04:12;;;;;;;0.00;0.00;;;0.40;99.90;;;;;;4992182;28;20229;-67
2021/01/11 06:06:40;;;;;;;0.00;0.00;;;0.40;99.90;;;;;;4991807;28;20215;-68
2021/01/11 06:09:07;;;;;;;0.00;0.00;;;0.40;99.90;;;;;;4992069;28;20205;-67
2021/01/11 06:11:35;;;;;;;0.00;0.00;;;0.30;99.90;;;;;;4992230;28;20203;-68
2021/01/11 06:14:04;;;;;;;0.00;0.00;;;0.40;99.90;;;;;;4992269;28;20215;-68
2021/01/11 06:16:31;;;;;;;0.00;0.00;;;0.40;99.90;;;;;;4990561;28;20257;-67
2021/01/11 06:18:58;;;;;;;0.00;0.00;;;0.40;99.90;;;;;;4990852;28;20195;-69
2021/01/11 06:21:26;;;;;;;0.00;0.00;;;0.40;99.90;;;;;;4992285;28;20206;-71
2021/01/11 06:25:01;;;;;;;0.00;0.00;;;0.40;99.90;;;;;;4991154;28;20747;-71
2021/01/11 06:27:27;;;;;;;0.00;0.00;;;0.40;99.90;;;;;;4987637;28;20667;-69
2021/01/11 06:29:54;;;;;;;0.00;0.00;;;0.50;99.90;;;;;;4991366;28;20198;-69
2021/01/11 06:32:22;;;;;;;0.00;0.00;;;0.50;99.90;;;;;;4992002;28;20230;-69
2021/01/11 06:34:55;;;;;;;0.00;0.00;;;0.50;99.90;;;;;;4993818;28;20203;-68
2021/01/11 06:37:24;;;;;;;0.00;0.00;;;0.50;99.90;;;;;;4992847;28;20203;-68
2021/01/11 06:39:51;;;;;;;0.00;0.00;;;0.50;99.90;;;;;;4992836;28;20206;-68
2021/01/11 06:42:22;;;;;;;0.00;0.00;;;0.50;99.90;;;;;;4994928;28;20246;-68
2021/01/11 06:44:50;;;;;;;0.00;0.00;;;0.50;99.90;;;;;;4993684;28;20207;-68
2021/01/11 06:50:14;;;;;;;0.00;0.00;;;0.50;99.90;;;;;;4994034;28;20195;-69
2021/01/11 06:52:46;;;;;;;0.00;0.00;;;0.50;1.00;;;;;;4995809;28;20219;-68
2021/01/11 06:55:17;;;;;;;0.00;0.00;;;0.50;1.00;;;;;;4993973;28;20191;-68
2021/01/11 06:57:47;;;;;;;0.00;0.00;;;0.60;1.00;;;;;;4991682;28;20567;-68
2021/01/11 07:00:19;;;;;;;0.00;0.00;;;0.60;1.00;;;;;;4991399;28;20656;-69
2021/01/11 07:02:45;;;;;;;0.00;0.00;;;0.60;1.00;;;;;;4990880;28;20223;-69
2021/01/11 07:08:47;;;;;;;0.00;0.00;;;0.60;1.00;;;;;;4937537;28;20198;-69
2021/01/11 07:14:54;;;;;;;0.00;0.00;;;0.60;1.00;;;;;;4992843;28;20640;-69
2021/01/11 07:17:37;;;;;;;0.00;0.00;;;0.60;1.00;;;;;;4991953;28;20203;-68
2021/01/11 07:20:05;;;;;;;0.00;0.00;;;0.70;1.00;;;;;;4991413;28;20836;-69
2021/01/11 07:38:33;;;;;;;0.00;0.00;;;0.70;1.00;;;;;;3333670;26;20207;-66
2021/01/11 07:41:09;;;;;;;0.00;0.00;;;0.80;1.00;;;;;;4991259;28;20664;-66
2021/01/11 07:43:42;;;;;;;0.00;0.00;;;0.80;1.00;;;;;;4993008;28;20233;-66
2021/01/11 07:46:09;;;;;;;0.00;0.00;;;0.80;1.00;;;;;;4994436;28;20717;-66
2021/01/11 07:48:49;;;;;;;0.00;0.00;;;0.80;1.00;;;;;;4993656;28;20211;-69
2021/01/11 07:51:23;;;;;;;0.00;0.00;;;0.80;1.00;;;;;;4994608;28;20675;-70
2021/01/11 07:57:26;;;;;;;0.00;0.00;;;0.80;1.00;;;;;;4914953;29;20335;-70
2021/01/11 08:00:24;;;;;;;0.00;0.00;;;0.90;23.60;;;;;;4987665;28;20203;-67
2021/01/11 08:02:51;;;;;;;0.00;0.00;;;0.90;10.60;;;;;;4993501;28;20265;-67
2021/01/11 08:05:43;;;;;;;0.00;0.00;;;0.90;1.00;;;;;;4994708;28;20254;-67
2021/01/11 08:08:14;;;;;;;0.00;0.00;;;0.80;1.00;;;;;;4993467;28;20399;-68
2021/01/11 08:10:42;;;;;;;0.00;0.00;;;0.80;1.00;;;;;;4994109;28;20195;-69
2021/01/11 08:13:09;;;;;;;0.00;0.00;;;0.80;1.00;;;;;;4994120;28;20231;-69
2021/01/11 08:15:36;;;;;;;0.00;0.00;;;0.90;1.00;;;;;;4994194;28;20199;-70
2021/01/11 08:18:05;;;;;;;0.00;0.00;;;0.90;1.00;;;;;;4994226;28;20199;-69
2021/01/11 08:20:32;;;;;;;0.00;0.00;;;0.80;1.00;;;;;;4994030;28;20203;-67
2021/01/11 08:23:07;;;;;;;0.00;0.00;;;0.80;1.00;;;;;;4993914;28;20711;-68
2021/01/11 08:25:34;;;;;;;0.00;0.00;;;0.80;1.00;;;;;;4993774;28;20226;-68
2021/01/11 08:28:03;;;;;;;0.00;0.00;;;0.80;1.00;;;;;;4993298;28;20226;-67
2021/01/11 08:30:32;;;;;;;0.00;0.00;;;0.80;1.00;;;;;;4993632;28;20281;-68
2021/01/11 08:32:59;;;;;;;0.00;0.00;;;0.80;1.00;;;;;;4993123;28;20273;-68
2021/01/11 08:35:26;;;;;;;0.00;0.00;;;0.70;1.00;;;;;;4994018;28;20195;-69
2021/01/11 08:37:59;;;;;;;0.00;0.00;;;0.70;1.00;;;;;;4992899;28;20567;-69
2021/01/11 09:07:45;;;;;;;0.00;0.00;;;0.80;99.90;;;;;;4992792;28;20187;-71
2021/01/11 09:23:27;;;;;;;0.00;0.00;;;1.00;99.90;;;;;;4982033;28;20274;-68
2021/01/11 09:26:04;;;;;;;0.00;0.00;;;1.00;99.90;;;;;;4992876;28;20223;-68
2021/01/11 09:31:53;;;;;;;0.00;0.00;;;1.00;99.90;;;;;;4973297;28;20267;-69
2021/01/11 09:37:58;;;;;;;0.00;0.00;;;1.00;99.90;;;;;;4925596;28;20932;-68
2021/01/11 09:40:37;;;;;;;0.00;0.00;;;1.00;99.90;;;;;;4973356;28;20207;-68
2021/01/11 09:43:05;;;;;;;0.00;0.00;;;1.00;99.90;;;;;;4973288;28;20223;-68
2021/01/11 09:45:31;;;;;;;0.00;0.00;;;1.00;99.90;;;;;;5043655;23;20226;-65
2021/01/11 09:47:57;;;;;;;0.00;0.00;;;1.00;99.90;;;;;;5012774;28;20210;-65
2021/01/11 09:50:23;;;;;;;0.00;0.00;;;0.90;99.90;;;;;;5012782;28;20206;-66
2021/01/11 09:52:50;;;;;;;0.00;0.00;;;1.00;91.20;;;;;;5012870;28;20198;-66
2021/01/11 09:55:17;;;;;;;0.00;0.00;;;0.90;50.20;;;;;;5013268;28;20218;-66
2021/01/11 09:57:44;;;;;;;0.00;0.00;;;0.90;35.70;;;;;;5013284;28;20229;-65
2021/01/11 10:00:11;;;;;;;0.00;0.00;;;0.90;1.00;;;;;;5016137;28;20571;-66
2021/01/11 10:02:38;;;;;;;0.00;0.00;;;0.90;1.00;;;;;;5019691;28;20194;-65
2021/01/11 10:05:05;;;;;;;0.00;0.00;;;0.90;1.00;;;;;;5018570;28;20215;-66
2021/01/11 10:07:31;;;;;;;0.00;0.00;;;0.90;1.00;;;;;;5012212;28;20637;-67
2021/01/11 10:09:57;;;;;;;0.00;0.00;;;1.00;1.00;;;;;;5011859;28;20736;-67
2021/01/11 10:12:23;;;;;;;0.00;0.00;;;0.90;1.00;;;;;;5012457;28;20199;-67
2021/01/11 10:14:50;;;;;;;0.00;0.00;;;0.90;1.00;;;;;;5012561;28;20218;-66
2021/01/11 10:17:16;;;;;;;0.00;0.00;;;0.90;1.00;;;;;;5012618;28;20194;-66
2021/01/11 10:19:43;;;;;;;0.00;0.00;;;0.90;1.00;;;;;;5011971;28;20252;-67
2021/01/11 10:22:09;;;;;;;0.00;0.00;;;0.90;1.00;;;;;;5012272;28;20741;-65
2021/01/11 10:27:10;;;;;;;0.00;0.00;;;0.90;1.00;;;;;;4736184;22;20231;-66
2021/01/11 10:29:36;;;;;;;0.00;0.00;;;1.00;1.00;;;;;;4972825;28;20215;-66
2021/01/11 10:32:03;;;;;;;0.00;0.00;;;1.00;1.00;;;;;;4973380;28;20215;-65
2021/01/11 10:34:29;;;;;;;0.00;0.00;;;1.10;1.00;;;;;;4973194;28;20215;-68
2021/01/11 10:36:56;;;;;;;0.00;0.00;;;1.10;1.00;;;;;;4973583;28;20799;-65
2021/01/11 10:39:24;;;;;;;0.00;0.00;;;1.00;1.00;;;;;;4973014;28;20199;-66
2021/01/11 10:41:51;;;;;;;0.00;0.00;;;1.10;1.00;;;;;;4973655;28;20201;-65
2021/01/11 10:44:17;;;;;;;0.00;0.00;;;1.10;1.00;;;;;;4973930;28;20254;-66
2021/01/11 10:46:43;;;;;;;0.00;0.00;;;1.10;1.00;;;;;;4973122;28;20223;-66
2021/01/11 10:49:10;;;;;;;0.00;0.00;;;1.10;1.00;;;;;;4972634;28;20296;-65
2021/01/11 10:51:37;;;;;;;0.00;0.00;;;1.20;1.00;;;;;;4981453;28;20702;-66
2021/01/11 10:54:04;;;;;;;0.00;0.00;;;1.20;1.00;;;;;;4992353;28;20230;-65
2021/01/11 10:56:30;;;;;;;0.00;0.00;;;1.20;1.00;;;;;;4993075;28;20218;-66
2021/01/11 10:58:56;;;;;;;0.00;0.00;;;1.20;1.00;;;;;;4992121;28;20226;-67
2021/01/11 11:01:23;;;;;;;0.00;0.00;;;1.10;1.00;;;;;;4992926;28;20195;-65
2021/01/11 11:06:28;;;;;;;0.00;0.00;;;1.10;39.40;;;;;;1242281;26;20286;-67
2021/01/11 11:08:54;;;;;;;0.00;0.00;;;1.10;58.00;;;;;;4972134;28;20672;-67
2021/01/11 11:11:21;;;;;;;0.00;0.00;;;1.10;92.60;;;;;;4973121;28;20571;-66
2021/01/11 11:13:47;;;;;;;0.00;0.00;;;1.10;92.10;;;;;;4972981;28;20203;-66
2021/01/11 11:16:13;;;;;;;0.00;0.00;;;1.10;86.30;;;;;;4973088;28;20763;-66
2021/01/11 11:18:41;;;;;;;0.00;0.00;;;1.10;99.90;;;;;;4976295;28;20598;-66
2021/01/11 11:21:08;;;;;;;0.00;0.00;;;1.10;99.90;;;;;;4977284;28;20563;-67
2021/01/11 11:23:35;;;;;;;0.00;0.00;;;1.20;99.90;;;;;;4980681;28;20203;-66
2021/01/11 11:26:03;;;;;;;0.00;0.00;;;1.20;99.90;;;;;;4976773;28;20216;-67
2021/01/11 11:28:30;;;;;;;0.00;0.00;;;1.30;99.90;;;;;;4975895;28;20207;-66
2021/01/11 11:30:56;;;;;;;0.00;0.00;;;1.30;99.90;;;;;;4976020;28;20223;-66
2021/01/11 11:33:23;;;;;;;0.00;0.00;;;1.30;99.90;;;;;;4976505;28;20207;-66
2021/01/11 11:35:51;;;;;;;0.00;0.00;;;1.30;97.70;;;;;;4976401;28;20250;-66
2021/01/11 11:38:17;;;;;;;0.00;0.00;;;1.20;85.90;;;;;;4976338;28;20203;-66
2021/01/11 11:40:44;;;;;;;0.00;0.00;;;1.20;77.80;;;;;;4976468;28;20630;-67
2021/01/11 11:43:10;;;;;;;0.00;0.00;;;1.20;69.80;;;;;;4976692;28;20245;-66
2021/01/11 11:45:38;;;;;;;0.00;0.00;;;1.30;87.10;;;;;;4976441;28;20730;-66
2021/01/11 11:48:04;;;;;;;0.00;0.00;;;1.30;54.00;;;;;;4975583;28;20940;-67
2021/01/11 11:50:31;;;;;;;0.00;0.00;;;1.30;73.70;;;;;;4975939;28;20606;-64
2021/01/11 11:52:57;;;;;;;0.00;0.00;;;1.40;63.30;;;;;;4976177;28;20212;-65
2021/01/11 11:55:23;;;;;;;0.00;0.00;;;1.50;98.00;;;;;;4976637;28;20282;-67
2021/01/11 11:57:50;;;;;;;0.00;0.00;;;1.50;62.90;;;;;;4975984;28;20626;-66
2021/01/11 12:00:17;;;;;;;0.00;0.00;;;1.60;64.80;;;;;;4975735;28;20196;-66
2021/01/11 12:02:44;;;;;;;0.00;0.00;;;1.60;1.00;;;;;;4975821;28;20211;-65
2021/01/11 12:05:12;;;;;;;0.00;0.00;;;1.70;1.00;;;;;;4976307;28;20227;-66
2021/01/11 12:07:38;;;;;;;0.00;0.00;;;1.70;1.00;;;;;;4975346;28;20255;-64
2021/01/11 12:10:07;;;;;;;0.00;0.00;;;1.70;1.00;;;;;;4975712;28;20200;-66
2021/01/11 12:12:33;;;;;;;0.00;0.00;;;1.80;1.00;;;;;;4975922;28;20204;-66
2021/01/11 12:15:02;;;;;;;0.00;0.00;;;1.80;1.00;;;;;;4975856;28;20224;-66
2021/01/11 12:17:28;;;;;;;0.00;0.00;;;1.90;1.00;;;;;;4975219;28;20743;-67
2021/01/11 12:19:54;;;;;;;0.00;0.00;;;1.90;1.00;;;;;;4975879;28;20200;-66
2021/01/11 12:22:20;;;;;;;0.00;0.00;;;1.90;1.00;;;;;;4975708;28;20744;-65
2021/01/11 12:24:46;;;;;;;0.00;0.00;;;1.90;1.00;;;;;;4975917;28;20235;-66
2021/01/11 12:27:13;;;;;;;0.00;0.00;;;1.90;1.00;;;;;;4975563;28;20241;-66
2021/01/11 12:29:39;;;;;;;0.00;0.00;;;2.00;1.00;;;;;;4973951;28;20229;-66
2021/01/11 12:32:07;;;;;;;0.00;0.00;;;2.00;1.00;;;;;;4978096;28;20203;-66
2021/01/11 12:34:39;;;;;;;0.00;0.00;;;2.10;1.00;;;;;;4975262;28;20587;-64
2021/01/11 12:37:06;;;;;;;0.00;0.00;;;2.10;1.00;;;;;;4975347;28;20195;-64
2021/01/11 12:39:32;;;;;;;0.00;0.00;;;2.10;1.00;;;;;;4975119;28;20200;-66
2021/01/11 12:41:58;;;;;;;0.00;0.00;;;2.10;1.00;;;;;;4975234;28;20195;-65
2021/01/11 12:44:24;;;;;;;0.00;0.00;;;2.20;1.00;;;;;;4975008;28;20758;-65
2021/01/11 12:46:50;;;;;;;0.00;0.00;;;2.20;99.90;;;;;;4975697;28;20217;-66
2021/01/11 12:49:17;;;;;;;0.00;0.00;;;2.20;99.90;;;;;;4976587;28;20199;-66
2021/01/11 12:51:43;;;;;;;0.00;0.00;;;2.20;99.90;;;;;;4980940;28;20199;-66
2021/01/11 12:54:09;;;;;;;0.00;0.00;;;2.20;99.90;;;;;;4980874;28;20219;-66
2021/01/11 12:56:36;;;;;;;0.00;0.00;;;2.20;99.90;;;;;;4974996;28;20202;-65
2021/01/11 12:59:02;;;;;;;0.00;0.00;;;2.20;99.90;;;;;;4973957;28;20200;-67
2021/01/11 13:01:29;;;;;;;0.00;0.00;;;2.20;99.90;;;;;;4975434;28;20199;-65
2021/01/11 13:03:56;;;;;;;0.00;0.00;;;2.20;99.90;;;;;;4975463;28;20222;-66
2021/01/11 13:06:25;;;;;;;0.00;0.00;;;2.20;99.90;;;;;;4975573;28;20220;-66
2021/01/11 13:08:51;;;;;;;0.00;0.00;;;2.20;99.90;;;;;;4974497;28;20204;-66
2021/01/11 13:11:19;;;;;;;0.00;0.00;;;2.20;99.90;;;;;;4974388;28;20209;-65
2021/01/11 13:13:46;;;;;;;0.00;0.00;;;2.30;99.90;;;;;;4975233;28;20214;-65
2021/01/11 13:16:12;;;;;;;0.00;0.00;;;2.30;99.90;;;;;;4975102;28;20196;-64
2021/01/11 13:18:39;;;;;;;0.00;0.00;;;2.30;99.90;;;;;;4974235;28;20642;-64
2021/01/11 13:21:05;;;;;;;0.00;0.00;;;2.30;99.90;;;;;;4974492;28;20626;-64
2021/01/11 13:23:32;;;;;;;0.00;0.00;;;2.40;99.90;;;;;;4974509;28;20228;-65
2021/01/11 13:25:58;;;;;;;0.00;0.00;;;2.40;99.90;;;;;;4974124;28;20228;-64
2021/01/11 13:28:24;;;;;;;0.00;0.00;;;2.40;99.90;;;;;;4974135;28;20206;-65
2021/01/11 13:30:50;;;;;;;0.00;0.00;;;2.40;99.90;;;;;;4973935;28;20207;-65
2021/01/11 13:33:16;;;;;;;0.00;0.00;;;2.40;99.90;;;;;;4974338;28;20208;-64
2021/01/11 13:35:42;;;;;;;0.00;0.00;;;2.40;99.90;;;;;;4974137;28;20231;-64
2021/01/11 13:38:09;;;;;;;0.00;0.00;;;2.40;99.90;;;;;;4973667;28;20196;-64
2021/01/11 13:40:36;;;;;;;0.00;0.00;;;2.50;99.90;;;;;;4973640;28;20211;-65
2021/01/11 13:43:02;;;;;;;0.00;0.00;;;2.50;99.90;;;;;;4974559;28;20201;-64
2021/01/11 13:45:28;;;;;;;0.00;0.00;;;2.50;99.90;;;;;;4974924;28;20894;-64
2021/01/11 13:47:54;;;;;;;0.00;0.00;;;2.60;99.90;;;;;;4974918;28;20219;-66
2021/01/11 13:50:20;;;;;;;0.00;0.00;;;2.60;99.90;;;;;;4973963;28;20673;-65
2021/01/11 13:52:47;;;;;;;0.00;0.00;;;2.60;99.90;;;;;;4973978;28;20675;-66
2021/01/11 13:55:13;;;;;;;0.00;0.00;;;2.60;99.90;;;;;;4973419;28;20228;-65
2021/01/11 13:57:40;;;;;;;0.00;0.00;;;2.60;99.90;;;;;;4974284;28;20715;-64
2021/01/11 14:00:08;;;;;;;0.00;0.00;;;2.70;99.90;;;;;;4974308;28;20205;-64
2021/01/11 14:02:34;;;;;;;0.00;0.00;;;2.60;99.90;;;;;;4975052;28;20672;-65
2021/01/11 14:05:01;;;;;;;0.00;0.00;;;2.60;99.90;;;;;;4974546;28;20229;-66
2021/01/11 14:07:28;;;;;;;0.00;0.00;;;2.70;99.90;;;;;;4973278;28;20248;-65
2021/01/11 14:09:54;;;;;;;0.00;0.00;;;2.60;99.90;;;;;;4974137;28;20262;-65
2021/01/11 14:12:20;;;;;;;0.00;0.00;;;2.60;99.90;;;;;;4977938;28;20236;-64
2021/01/11 14:14:47;;;;;;;0.00;0.00;;;2.70;99.90;;;;;;4973905;28;20274;-64
2021/01/11 14:17:13;;;;;;;0.00;0.00;;;2.70;99.90;;;;;;4973969;28;20878;-64
2021/01/11 14:19:40;;;;;;;0.00;0.00;;;2.70;99.90;;;;;;4973304;28;20204;-64
2021/01/11 14:22:06;;;;;;;0.00;0.00;;;2.70;99.90;;;;;;4974345;28;20247;-65
2021/01/11 14:24:32;;;;;;;0.00;0.00;;;2.70;99.90;;;;;;4973582;28;20279;-65
2021/01/11 14:26:58;;;;;;;0.00;0.00;;;2.70;99.90;;;;;;4973301;28;20220;-66